sensor_id;sensor_type;location;lat;lon;timestamp;temperature;humidity
28087;DHT22;15392;48.912;8.380;2023-11-19T00:01:13;14.90;64.40
28087;DHT22;15392;48.912;8.380;2023-11-19T00:03:59;14.90;64.20
28087;DHT22;15392;48.912;8.380;2023-11-19T00:06:45;14.90;64.50
28087;DHT22;15392;48.912;8.380;2023-11-19T00:09:31;14.90;64.50
28087;DHT22;15392;48.912;8.380;2023-11-19T00:12:17;14.90;64.70
28087;DHT22;15392;48.912;8.380;2023-11-19T00:15:04;15.00;64.80
28087;DHT22;15392;48.912;8.380;2023-11-19T00:17:51;15.00;64.70
28087;DHT22;15392;48.912;8.380;2023-11-19T00:20:37;15.00;64.90
28087;DHT22;15392;48.912;8.380;2023-11-19T00:23:23;15.00;65.00
28087;DHT22;15392;48.912;8.380;2023-11-19T00:26:09;15.10;65.20
28087;DHT22;15392;48.912;8.380;2023-11-19T00:28:55;15.10;65.40
28087;DHT22;15392;48.912;8.380;2023-11-19T00:31:41;15.10;65.40
28087;DHT22;15392;48.912;8.380;2023-11-19T00:34:27;15.20;65.40
28087;DHT22;15392;48.912;8.380;2023-11-19T00:37:14;15.10;65.50
28087;DHT22;15392;48.912;8.380;2023-11-19T00:40:03;15.20;65.30
28087;DHT22;15392;48.912;8.380;2023-11-19T00:42:51;15.20;65.80
28087;DHT22;15392;48.912;8.380;2023-11-19T00:45:37;15.20;65.60
28087;DHT22;15392;48.912;8.380;2023-11-19T00:48:23;15.30;65.70
28087;DHT22;15392;48.912;8.380;2023-11-19T00:51:11;15.30;65.70
28087;DHT22;15392;48.912;8.380;2023-11-19T00:53:58;15.30;65.80
28087;DHT22;15392;48.912;8.380;2023-11-19T00:56:44;15.30;65.90
28087;DHT22;15392;48.912;8.380;2023-11-19T00:59:30;15.30;65.90
28087;DHT22;15392;48.912;8.380;2023-11-19T01:02:16;15.40;65.90
28087;DHT22;15392;48.912;8.380;2023-11-19T01:05:03;15.40;65.80
28087;DHT22;15392;48.912;8.380;2023-11-19T01:07:49;15.40;66.10
28087;DHT22;15392;48.912;8.380;2023-11-19T01:10:38;15.40;65.90
28087;DHT22;15392;48.912;8.380;2023-11-19T01:13:24;15.50;66.00
28087;DHT22;15392;48.912;8.380;2023-11-19T01:16:10;15.50;65.90
28087;DHT22;15392;48.912;8.380;2023-11-19T01:18:56;15.50;66.30
28087;DHT22;15392;48.912;8.380;2023-11-19T01:21:42;15.50;66.10
28087;DHT22;15392;48.912;8.380;2023-11-19T01:24:29;15.50;66.20
28087;DHT22;15392;48.912;8.380;2023-11-19T01:27:16;15.60;66.00
28087;DHT22;15392;48.912;8.380;2023-11-19T01:30:02;15.60;65.90
28087;DHT22;15392;48.912;8.380;2023-11-19T01:32:49;15.60;65.70
28087;DHT22;15392;48.912;8.380;2023-11-19T01:35:35;15.60;66.00
28087;DHT22;15392;48.912;8.380;2023-11-19T01:38:21;15.60;66.10
28087;DHT22;15392;48.912;8.380;2023-11-19T01:41:07;15.60;66.10
28087;DHT22;15392;48.912;8.380;2023-11-19T01:43:54;15.70;66.30
28087;DHT22;15392;48.912;8.380;2023-11-19T01:46:44;15.70;66.10
28087;DHT22;15392;48.912;8.380;2023-11-19T01:49:33;15.70;66.20
28087;DHT22;15392;48.912;8.380;2023-11-19T01:52:20;15.70;66.00
28087;DHT22;15392;48.912;8.380;2023-11-19T01:55:07;15.70;66.10
28087;DHT22;15392;48.912;8.380;2023-11-19T01:57:55;15.70;66.10
28087;DHT22;15392;48.912;8.380;2023-11-19T02:00:45;15.80;66.20
28087;DHT22;15392;48.912;8.380;2023-11-19T02:03:32;15.80;66.10
28087;DHT22;15392;48.912;8.380;2023-11-19T02:06:19;15.80;66.10
28087;DHT22;15392;48.912;8.380;2023-11-19T02:09:05;15.80;66.20
28087;DHT22;15392;48.912;8.380;2023-11-19T02:11:53;15.80;66.20
28087;DHT22;15392;48.912;8.380;2023-11-19T02:14:40;15.80;66.10
28087;DHT22;15392;48.912;8.380;2023-11-19T02:17:27;15.80;66.00
28087;DHT22;15392;48.912;8.380;2023-11-19T02:20:17;15.80;66.10
28087;DHT22;15392;48.912;8.380;2023-11-19T02:23:05;15.80;66.30
28087;DHT22;15392;48.912;8.380;2023-11-19T02:29:00;15.80;66.40
28087;DHT22;15392;48.912;8.380;2023-11-19T02:31:46;15.80;66.20
28087;DHT22;15392;48.912;8.380;2023-11-19T02:34:32;15.90;66.20
28087;DHT22;15392;48.912;8.380;2023-11-19T02:37:18;15.80;66.10
28087;DHT22;15392;48.912;8.380;2023-11-19T02:40:05;15.80;66.20
28087;DHT22;15392;48.912;8.380;2023-11-19T02:42:54;15.90;66.20
28087;DHT22;15392;48.912;8.380;2023-11-19T02:45:41;15.90;67.10
28087;DHT22;15392;48.912;8.380;2023-11-19T02:48:28;15.90;66.20
28087;DHT22;15392;48.912;8.380;2023-11-19T02:51:16;15.90;66.30
28087;DHT22;15392;48.912;8.380;2023-11-19T02:54:04;15.90;66.30
28087;DHT22;15392;48.912;8.380;2023-11-19T02:56:50;15.90;66.10
28087;DHT22;15392;48.912;8.380;2023-11-19T02:59:41;16.00;67.00
28087;DHT22;15392;48.912;8.380;2023-11-19T03:02:28;15.90;66.30
28087;DHT22;15392;48.912;8.380;2023-11-19T03:05:19;16.00;66.30
28087;DHT22;15392;48.912;8.380;2023-11-19T03:08:05;15.90;66.40
28087;DHT22;15392;48.912;8.380;2023-11-19T03:10:51;16.00;66.40
28087;DHT22;15392;48.912;8.380;2023-11-19T03:13:37;16.00;66.40
28087;DHT22;15392;48.912;8.380;2023-11-19T03:16:23;16.00;66.30
28087;DHT22;15392;48.912;8.380;2023-11-19T03:19:09;16.00;66.30
28087;DHT22;15392;48.912;8.380;2023-11-19T03:21:55;15.90;66.30
28087;DHT22;15392;48.912;8.380;2023-11-19T03:24:41;16.00;66.10
28087;DHT22;15392;48.912;8.380;2023-11-19T03:27:27;16.00;66.30
28087;DHT22;15392;48.912;8.380;2023-11-19T03:30:13;16.00;66.30
28087;DHT22;15392;48.912;8.380;2023-11-19T03:32:59;16.00;66.70
28087;DHT22;15392;48.912;8.380;2023-11-19T03:35:48;16.00;66.60
28087;DHT22;15392;48.912;8.380;2023-11-19T03:38:34;16.00;66.40
28087;DHT22;15392;48.912;8.380;2023-11-19T03:41:20;16.10;66.90
28087;DHT22;15392;48.912;8.380;2023-11-19T03:44:06;16.10;66.70
28087;DHT22;15392;48.912;8.380;2023-11-19T03:46:52;16.10;66.60
28087;DHT22;15392;48.912;8.380;2023-11-19T03:49:38;16.10;66.90
28087;DHT22;15392;48.912;8.380;2023-11-19T03:52:24;16.10;66.60
28087;DHT22;15392;48.912;8.380;2023-11-19T03:55:10;16.20;66.60
28087;DHT22;15392;48.912;8.380;2023-11-19T03:57:58;16.20;66.30
28087;DHT22;15392;48.912;8.380;2023-11-19T04:00:44;16.20;66.40
28087;DHT22;15392;48.912;8.380;2023-11-19T04:03:30;16.30;66.30
28087;DHT22;15392;48.912;8.380;2023-11-19T04:06:16;16.30;66.30
28087;DHT22;15392;48.912;8.380;2023-11-19T04:09:03;16.30;66.30
28087;DHT22;15392;48.912;8.380;2023-11-19T04:11:49;16.30;66.30
28087;DHT22;15392;48.912;8.380;2023-11-19T04:14:36;16.30;66.10
28087;DHT22;15392;48.912;8.380;2023-11-19T04:17:22;16.30;66.00
28087;DHT22;15392;48.912;8.380;2023-11-19T04:20:09;16.40;66.00
28087;DHT22;15392;48.912;8.380;2023-11-19T04:22:58;16.40;66.00
28087;DHT22;15392;48.912;8.380;2023-11-19T04:25:46;16.40;65.90
28087;DHT22;15392;48.912;8.380;2023-11-19T04:28:32;16.40;66.00
28087;DHT22;15392;48.912;8.380;2023-11-19T04:31:18;16.40;65.90
28087;DHT22;15392;48.912;8.380;2023-11-19T04:34:04;16.40;66.10
28087;DHT22;15392;48.912;8.380;2023-11-19T04:36:50;16.40;66.00
28087;DHT22;15392;48.912;8.380;2023-11-19T04:39:36;16.50;65.90
28087;DHT22;15392;48.912;8.380;2023-11-19T04:42:22;16.50;65.80
28087;DHT22;15392;48.912;8.380;2023-11-19T04:45:10;16.50;65.90
28087;DHT22;15392;48.912;8.380;2023-11-19T04:47:56;16.50;65.60
28087;DHT22;15392;48.912;8.380;2023-11-19T04:50:42;16.60;65.70
28087;DHT22;15392;48.912;8.380;2023-11-19T04:53:28;16.60;65.80
28087;DHT22;15392;48.912;8.380;2023-11-19T04:56:14;16.60;65.70
28087;DHT22;15392;48.912;8.380;2023-11-19T04:59:01;16.70;65.60
28087;DHT22;15392;48.912;8.380;2023-11-19T05:01:47;16.70;65.70
28087;DHT22;15392;48.912;8.380;2023-11-19T05:04:33;16.70;65.80
28087;DHT22;15392;48.912;8.380;2023-11-19T05:07:19;16.70;65.50
28087;DHT22;15392;48.912;8.380;2023-11-19T05:10:06;16.70;65.40
28087;DHT22;15392;48.912;8.380;2023-11-19T05:12:53;16.80;65.40
28087;DHT22;15392;48.912;8.380;2023-11-19T05:15:39;16.80;65.40
28087;DHT22;15392;48.912;8.380;2023-11-19T05:18:25;16.80;65.20
28087;DHT22;15392;48.912;8.380;2023-11-19T05:21:11;16.90;65.20
28087;DHT22;15392;48.912;8.380;2023-11-19T05:23:57;16.90;65.10
28087;DHT22;15392;48.912;8.380;2023-11-19T05:26:43;16.90;65.00
28087;DHT22;15392;48.912;8.380;2023-11-19T05:29:29;17.00;65.10
28087;DHT22;15392;48.912;8.380;2023-11-19T05:32:15;17.00;64.90
28087;DHT22;15392;48.912;8.380;2023-11-19T05:35:01;17.00;64.80
28087;DHT22;15392;48.912;8.380;2023-11-19T05:37:47;17.00;64.70
28087;DHT22;15392;48.912;8.380;2023-11-19T05:40:35;17.10;64.70
28087;DHT22;15392;48.912;8.380;2023-11-19T05:43:22;17.10;64.60
28087;DHT22;15392;48.912;8.380;2023-11-19T05:46:08;17.10;64.60
28087;DHT22;15392;48.912;8.380;2023-11-19T05:48:54;17.10;64.40
28087;DHT22;15392;48.912;8.380;2023-11-19T05:51:41;17.20;64.40
28087;DHT22;15392;48.912;8.380;2023-11-19T05:54:27;17.20;64.20
28087;DHT22;15392;48.912;8.380;2023-11-19T05:57:13;17.20;64.20
28087;DHT22;15392;48.912;8.380;2023-11-19T05:59:59;17.20;64.20
28087;DHT22;15392;48.912;8.380;2023-11-19T06:02:45;17.30;64.10
28087;DHT22;15392;48.912;8.380;2023-11-19T06:05:31;17.30;64.30
28087;DHT22;15392;48.912;8.380;2023-11-19T06:08:17;17.30;64.20
28087;DHT22;15392;48.912;8.380;2023-11-19T06:11:03;17.30;64.40
28087;DHT22;15392;48.912;8.380;2023-11-19T06:13:50;17.30;64.90
28087;DHT22;15392;48.912;8.380;2023-11-19T06:16:36;17.30;65.00
28087;DHT22;15392;48.912;8.380;2023-11-19T06:19:22;17.30;65.20
28087;DHT22;15392;48.912;8.380;2023-11-19T06:22:10;17.30;65.40
28087;DHT22;15392;48.912;8.380;2023-11-19T06:24:56;17.20;65.70
28087;DHT22;15392;48.912;8.380;2023-11-19T06:27:42;17.20;65.90
28087;DHT22;15392;48.912;8.380;2023-11-19T06:30:29;17.20;65.90
28087;DHT22;15392;48.912;8.380;2023-11-19T06:33:16;17.20;66.10
28087;DHT22;15392;48.912;8.380;2023-11-19T06:36:03;17.20;65.80
28087;DHT22;15392;48.912;8.380;2023-11-19T06:38:49;17.20;65.80
28087;DHT22;15392;48.912;8.380;2023-11-19T06:41:35;17.20;65.60
28087;DHT22;15392;48.912;8.380;2023-11-19T06:44:23;17.20;65.70
28087;DHT22;15392;48.912;8.380;2023-11-19T06:47:10;17.20;65.50
28087;DHT22;15392;48.912;8.380;2023-11-19T06:49:56;17.20;65.60
28087;DHT22;15392;48.912;8.380;2023-11-19T06:52:42;17.20;65.50
28087;DHT22;15392;48.912;8.380;2023-11-19T06:55:28;17.30;65.30
28087;DHT22;15392;48.912;8.380;2023-11-19T06:58:14;17.30;65.30
28087;DHT22;15392;48.912;8.380;2023-11-19T07:01:00;17.30;65.10
28087;DHT22;15392;48.912;8.380;2023-11-19T07:03:47;17.40;65.20
28087;DHT22;15392;48.912;8.380;2023-11-19T07:06:33;17.40;65.10
28087;DHT22;15392;48.912;8.380;2023-11-19T07:09:20;17.40;65.00
28087;DHT22;15392;48.912;8.380;2023-11-19T07:12:06;17.50;65.00
28087;DHT22;15392;48.912;8.380;2023-11-19T07:14:53;17.50;64.90
28087;DHT22;15392;48.912;8.380;2023-11-19T07:17:40;17.60;64.70
28087;DHT22;15392;48.912;8.380;2023-11-19T07:20:26;17.60;64.70
28087;DHT22;15392;48.912;8.380;2023-11-19T07:23:13;17.60;64.40
28087;DHT22;15392;48.912;8.380;2023-11-19T07:26:05;17.60;64.30
28087;DHT22;15392;48.912;8.380;2023-11-19T07:28:53;17.60;64.40
28087;DHT22;15392;48.912;8.380;2023-11-19T07:31:41;17.70;64.40
28087;DHT22;15392;48.912;8.380;2023-11-19T07:34:27;17.70;64.30
28087;DHT22;15392;48.912;8.380;2023-11-19T07:37:14;17.70;64.10
28087;DHT22;15392;48.912;8.380;2023-11-19T07:40:02;17.70;63.80
28087;DHT22;15392;48.912;8.380;2023-11-19T07:42:49;17.70;63.60
28087;DHT22;15392;48.912;8.380;2023-11-19T07:45:35;17.80;63.60
28087;DHT22;15392;48.912;8.380;2023-11-19T07:48:22;17.80;63.50
28087;DHT22;15392;48.912;8.380;2023-11-19T07:51:11;17.80;63.50
28087;DHT22;15392;48.912;8.380;2023-11-19T07:53:58;17.80;63.30
28087;DHT22;15392;48.912;8.380;2023-11-19T07:56:44;17.80;63.20
28087;DHT22;15392;48.912;8.380;2023-11-19T07:59:30;17.80;63.10
28087;DHT22;15392;48.912;8.380;2023-11-19T08:02:16;17.90;64.00
28087;DHT22;15392;48.912;8.380;2023-11-19T08:05:04;17.90;64.00
28087;DHT22;15392;48.912;8.380;2023-11-19T08:07:50;17.90;64.20
28087;DHT22;15392;48.912;8.380;2023-11-19T08:10:38;17.90;64.30
28087;DHT22;15392;48.912;8.380;2023-11-19T08:13:25;17.80;64.20
28087;DHT22;15392;48.912;8.380;2023-11-19T08:16:11;17.80;64.20
28087;DHT22;15392;48.912;8.380;2023-11-19T08:18:57;17.80;64.00
28087;DHT22;15392;48.912;8.380;2023-11-19T08:21:44;17.80;64.00
28087;DHT22;15392;48.912;8.380;2023-11-19T08:24:29;17.80;63.90
28087;DHT22;15392;48.912;8.380;2023-11-19T08:27:15;17.80;63.90
28087;DHT22;15392;48.912;8.380;2023-11-19T08:30:01;17.90;63.80
28087;DHT22;15392;48.912;8.380;2023-11-19T08:32:48;17.90;63.70
28087;DHT22;15392;48.912;8.380;2023-11-19T08:35:34;17.90;63.70
28087;DHT22;15392;48.912;8.380;2023-11-19T08:38:20;17.90;63.40
28087;DHT22;15392;48.912;8.380;2023-11-19T08:41:06;17.90;63.30
28087;DHT22;15392;48.912;8.380;2023-11-19T08:43:52;17.90;63.10
28087;DHT22;15392;48.912;8.380;2023-11-19T08:46:38;18.00;63.10
28087;DHT22;15392;48.912;8.380;2023-11-19T08:49:25;18.00;62.90
28087;DHT22;15392;48.912;8.380;2023-11-19T08:52:11;18.00;63.50
28087;DHT22;15392;48.912;8.380;2023-11-19T08:54:57;18.00;64.60
28087;DHT22;15392;48.912;8.380;2023-11-19T08:57:43;18.00;64.80
28087;DHT22;15392;48.912;8.380;2023-11-19T09:00:30;17.90;65.00
28087;DHT22;15392;48.912;8.380;2023-11-19T09:03:18;17.90;65.40
28087;DHT22;15392;48.912;8.380;2023-11-19T09:06:04;17.80;65.20
28087;DHT22;15392;48.912;8.380;2023-11-19T09:08:50;17.80;65.30
28087;DHT22;15392;48.912;8.380;2023-11-19T09:11:36;17.80;65.40
28087;DHT22;15392;48.912;8.380;2023-11-19T09:14:22;17.70;65.40
28087;DHT22;15392;48.912;8.380;2023-11-19T09:17:11;17.70;65.90
28087;DHT22;15392;48.912;8.380;2023-11-19T09:20:00;17.70;65.80
28087;DHT22;15392;48.912;8.380;2023-11-19T09:22:46;17.70;66.00
28087;DHT22;15392;48.912;8.380;2023-11-19T09:25:32;17.60;66.00
28087;DHT22;15392;48.912;8.380;2023-11-19T09:28:18;17.60;66.20
28087;DHT22;15392;48.912;8.380;2023-11-19T09:31:16;17.60;66.20
28087;DHT22;15392;48.912;8.380;2023-11-19T09:34:02;17.60;66.60
28087;DHT22;15392;48.912;8.380;2023-11-19T09:36:48;17.60;66.70
28087;DHT22;15392;48.912;8.380;2023-11-19T09:39:34;17.70;66.40
28087;DHT22;15392;48.912;8.380;2023-11-19T09:42:20;17.70;67.00
28087;DHT22;15392;48.912;8.380;2023-11-19T09:45:14;17.70;67.00
28087;DHT22;15392;48.912;8.380;2023-11-19T09:48:02;17.70;67.00
28087;DHT22;15392;48.912;8.380;2023-11-19T09:50:48;17.70;67.20
28087;DHT22;15392;48.912;8.380;2023-11-19T09:53:36;17.70;67.00
28087;DHT22;15392;48.912;8.380;2023-11-19T09:56:23;17.80;67.10
28087;DHT22;15392;48.912;8.380;2023-11-19T09:59:09;17.80;66.60
28087;DHT22;15392;48.912;8.380;2023-11-19T10:01:59;17.90;66.70
28087;DHT22;15392;48.912;8.380;2023-11-19T10:04:45;17.90;66.40
28087;DHT22;15392;48.912;8.380;2023-11-19T10:07:33;18.00;66.50
28087;DHT22;15392;48.912;8.380;2023-11-19T10:10:19;18.00;66.50
28087;DHT22;15392;48.912;8.380;2023-11-19T10:13:06;18.20;66.60
28087;DHT22;15392;48.912;8.380;2023-11-19T10:15:55;18.30;66.90
28087;DHT22;15392;48.912;8.380;2023-11-19T10:18:47;18.40;66.40
28087;DHT22;15392;48.912;8.380;2023-11-19T10:21:35;18.50;66.10
28087;DHT22;15392;48.912;8.380;2023-11-19T10:24:34;18.60;65.70
28087;DHT22;15392;48.912;8.380;2023-11-19T10:27:20;18.70;65.40
28087;DHT22;15392;48.912;8.380;2023-11-19T10:30:10;18.80;64.70
28087;DHT22;15392;48.912;8.380;2023-11-19T10:33:12;18.80;64.20
28087;DHT22;15392;48.912;8.380;2023-11-19T10:36:06;18.90;63.60
28087;DHT22;15392;48.912;8.380;2023-11-19T10:38:56;18.90;63.00
28087;DHT22;15392;48.912;8.380;2023-11-19T10:41:42;18.90;63.10
28087;DHT22;15392;48.912;8.380;2023-11-19T10:44:32;18.90;63.10
28087;DHT22;15392;48.912;8.380;2023-11-19T10:47:23;19.00;62.80
28087;DHT22;15392;48.912;8.380;2023-11-19T10:50:09;18.90;63.50
28087;DHT22;15392;48.912;8.380;2023-11-19T10:52:57;19.00;62.40
28087;DHT22;15392;48.912;8.380;2023-11-19T10:55:47;19.00;62.20
28087;DHT22;15392;48.912;8.380;2023-11-19T10:58:35;19.00;62.20
28087;DHT22;15392;48.912;8.380;2023-11-19T11:01:24;19.00;62.00
28087;DHT22;15392;48.912;8.380;2023-11-19T11:04:14;19.00;62.20
28087;DHT22;15392;48.912;8.380;2023-11-19T11:07:05;19.00;62.10
28087;DHT22;15392;48.912;8.380;2023-11-19T11:09:53;19.00;62.00
28087;DHT22;15392;48.912;8.380;2023-11-19T11:12:41;19.00;61.60
28087;DHT22;15392;48.912;8.380;2023-11-19T11:15:27;19.10;61.40
28087;DHT22;15392;48.912;8.380;2023-11-19T11:18:14;19.00;61.60
28087;DHT22;15392;48.912;8.380;2023-11-19T11:21:08;19.10;61.90
28087;DHT22;15392;48.912;8.380;2023-11-19T11:24:28;19.10;61.70
28087;DHT22;15392;48.912;8.380;2023-11-19T11:27:40;19.10;61.20
28087;DHT22;15392;48.912;8.380;2023-11-19T11:41:21;19.10;62.00
28087;DHT22;15392;48.912;8.380;2023-11-19T11:44:09;19.10;62.20
28087;DHT22;15392;48.912;8.380;2023-11-19T11:46:56;19.10;62.30
28087;DHT22;15392;48.912;8.380;2023-11-19T11:49:42;19.20;62.20
28087;DHT22;15392;48.912;8.380;2023-11-19T11:52:29;19.20;61.80
28087;DHT22;15392;48.912;8.380;2023-11-19T11:55:16;19.20;61.60
28087;DHT22;15392;48.912;8.380;2023-11-19T11:58:03;19.30;61.80
28087;DHT22;15392;48.912;8.380;2023-11-19T12:00:51;19.30;61.10
28087;DHT22;15392;48.912;8.380;2023-11-19T12:03:37;19.30;61.30
28087;DHT22;15392;48.912;8.380;2023-11-19T12:06:24;19.30;61.20
28087;DHT22;15392;48.912;8.380;2023-11-19T12:09:10;19.30;61.10
28087;DHT22;15392;48.912;8.380;2023-11-19T12:12:25;19.30;61.00
28087;DHT22;15392;48.912;8.380;2023-11-19T12:15:12;19.40;60.10
28087;DHT22;15392;48.912;8.380;2023-11-19T12:18:00;19.40;60.60
28087;DHT22;15392;48.912;8.380;2023-11-19T12:20:46;19.30;60.50
28087;DHT22;15392;48.912;8.380;2023-11-19T12:23:32;19.30;61.60
28087;DHT22;15392;48.912;8.380;2023-11-19T12:26:36;19.30;59.90
28087;DHT22;15392;48.912;8.380;2023-11-19T12:29:23;19.40;59.90
28087;DHT22;15392;48.912;8.380;2023-11-19T12:32:09;19.40;60.00
28087;DHT22;15392;48.912;8.380;2023-11-19T12:34:55;19.40;60.00
28087;DHT22;15392;48.912;8.380;2023-11-19T12:37:49;19.40;59.90
28087;DHT22;15392;48.912;8.380;2023-11-19T12:40:35;19.40;60.00
28087;DHT22;15392;48.912;8.380;2023-11-19T12:43:22;19.40;59.90
28087;DHT22;15392;48.912;8.380;2023-11-19T12:46:21;19.50;60.20
28087;DHT22;15392;48.912;8.380;2023-11-19T12:49:11;19.50;59.80
28087;DHT22;15392;48.912;8.380;2023-11-19T12:51:57;19.50;60.00
28087;DHT22;15392;48.912;8.380;2023-11-19T12:54:43;19.60;60.10
28087;DHT22;15392;48.912;8.380;2023-11-19T12:57:42;19.60;59.10
28087;DHT22;15392;48.912;8.380;2023-11-19T13:00:28;19.70;58.70
28087;DHT22;15392;48.912;8.380;2023-11-19T13:03:32;19.70;59.30
28087;DHT22;15392;48.912;8.380;2023-11-19T13:06:22;19.70;59.50
28087;DHT22;15392;48.912;8.380;2023-11-19T13:09:08;19.70;59.20
28087;DHT22;15392;48.912;8.380;2023-11-19T13:11:58;19.70;58.90
28087;DHT22;15392;48.912;8.380;2023-11-19T13:14:45;19.80;59.00
28087;DHT22;15392;48.912;8.380;2023-11-19T13:17:33;19.80;59.20
28087;DHT22;15392;48.912;8.380;2023-11-19T13:20:19;19.80;59.20
28087;DHT22;15392;48.912;8.380;2023-11-19T13:23:06;19.80;59.00
28087;DHT22;15392;48.912;8.380;2023-11-19T13:25:53;19.80;59.00
28087;DHT22;15392;48.912;8.380;2023-11-19T13:28:39;19.80;58.70
28087;DHT22;15392;48.912;8.380;2023-11-19T13:31:26;19.70;58.80
28087;DHT22;15392;48.912;8.380;2023-11-19T13:34:12;19.70;58.40
28087;DHT22;15392;48.912;8.380;2023-11-19T13:36:58;19.70;58.10
28087;DHT22;15392;48.912;8.380;2023-11-19T13:39:44;19.70;58.50
28087;DHT22;15392;48.912;8.380;2023-11-19T13:42:30;19.70;58.70
28087;DHT22;15392;48.912;8.380;2023-11-19T13:45:16;19.70;58.50
28087;DHT22;15392;48.912;8.380;2023-11-19T13:48:04;19.70;58.40
28087;DHT22;15392;48.912;8.380;2023-11-19T13:50:50;19.60;58.40
28087;DHT22;15392;48.912;8.380;2023-11-19T13:53:36;19.60;57.80
28087;DHT22;15392;48.912;8.380;2023-11-19T13:56:23;19.60;58.60
28087;DHT22;15392;48.912;8.380;2023-11-19T13:59:09;19.60;58.20
28087;DHT22;15392;48.912;8.380;2023-11-19T14:01:55;19.60;58.30
28087;DHT22;15392;48.912;8.380;2023-11-19T14:04:41;19.60;58.60
28087;DHT22;15392;48.912;8.380;2023-11-19T14:07:27;19.60;58.30
28087;DHT22;15392;48.912;8.380;2023-11-19T14:10:14;19.60;58.40
28087;DHT22;15392;48.912;8.380;2023-11-19T14:13:00;19.60;58.60
28087;DHT22;15392;48.912;8.380;2023-11-19T14:15:46;19.60;58.80
28087;DHT22;15392;48.912;8.380;2023-11-19T14:18:33;19.60;58.40
28087;DHT22;15392;48.912;8.380;2023-11-19T14:21:20;19.60;58.70
28087;DHT22;15392;48.912;8.380;2023-11-19T14:24:07;19.60;58.80
28087;DHT22;15392;48.912;8.380;2023-11-19T14:26:53;19.60;59.10
28087;DHT22;15392;48.912;8.380;2023-11-19T14:29:39;19.60;59.10
28087;DHT22;15392;48.912;8.380;2023-11-19T14:32:26;19.60;58.90
28087;DHT22;15392;48.912;8.380;2023-11-19T14:35:12;19.70;58.90
28087;DHT22;15392;48.912;8.380;2023-11-19T14:37:58;19.60;58.80
28087;DHT22;15392;48.912;8.380;2023-11-19T14:40:44;19.60;57.80
28087;DHT22;15392;48.912;8.380;2023-11-19T14:43:30;19.60;58.40
28087;DHT22;15392;48.912;8.380;2023-11-19T14:46:16;19.60;58.50
28087;DHT22;15392;48.912;8.380;2023-11-19T14:49:02;19.60;58.50
28087;DHT22;15392;48.912;8.380;2023-11-19T14:51:50;19.60;58.60
28087;DHT22;15392;48.912;8.380;2023-11-19T14:54:37;19.60;58.00
28087;DHT22;15392;48.912;8.380;2023-11-19T14:57:26;19.60;57.60
28087;DHT22;15392;48.912;8.380;2023-11-19T15:00:13;19.50;57.40
28087;DHT22;15392;48.912;8.380;2023-11-19T15:02:59;19.50;57.80
28087;DHT22;15392;48.912;8.380;2023-11-19T15:05:45;19.50;58.20
28087;DHT22;15392;48.912;8.380;2023-11-19T15:08:34;19.50;57.60
28087;DHT22;15392;48.912;8.380;2023-11-19T15:11:20;19.50;58.00
28087;DHT22;15392;48.912;8.380;2023-11-19T15:14:06;19.50;57.70
28087;DHT22;15392;48.912;8.380;2023-11-19T15:16:52;19.40;56.90
28087;DHT22;15392;48.912;8.380;2023-11-19T15:19:38;19.40;57.10
28087;DHT22;15392;48.912;8.380;2023-11-19T15:22:24;19.40;57.10
28087;DHT22;15392;48.912;8.380;2023-11-19T15:25:12;19.40;56.50
28087;DHT22;15392;48.912;8.380;2023-11-19T15:27:59;19.30;57.10
28087;DHT22;15392;48.912;8.380;2023-11-19T15:30:45;19.30;56.60
28087;DHT22;15392;48.912;8.380;2023-11-19T15:33:31;19.30;57.10
28087;DHT22;15392;48.912;8.380;2023-11-19T15:36:18;19.20;57.50
28087;DHT22;15392;48.912;8.380;2023-11-19T15:39:04;19.20;56.90
28087;DHT22;15392;48.912;8.380;2023-11-19T15:41:50;19.20;56.70
28087;DHT22;15392;48.912;8.380;2023-11-19T15:44:37;19.20;57.10
28087;DHT22;15392;48.912;8.380;2023-11-19T15:47:24;19.10;56.80
28087;DHT22;15392;48.912;8.380;2023-11-19T15:50:10;19.10;56.50
28087;DHT22;15392;48.912;8.380;2023-11-19T15:52:56;19.10;57.20
28087;DHT22;15392;48.912;8.380;2023-11-19T15:55:42;19.00;56.60
28087;DHT22;15392;48.912;8.380;2023-11-19T15:58:29;19.00;56.40
28087;DHT22;15392;48.912;8.380;2023-11-19T16:01:17;19.00;56.30
28087;DHT22;15392;48.912;8.380;2023-11-19T16:04:03;19.00;57.10
28087;DHT22;15392;48.912;8.380;2023-11-19T16:06:50;19.00;57.10
28087;DHT22;15392;48.912;8.380;2023-11-19T16:09:36;18.90;56.50
28087;DHT22;15392;48.912;8.380;2023-11-19T16:12:23;18.90;57.10
28087;DHT22;15392;48.912;8.380;2023-11-19T16:15:09;18.90;56.90
28087;DHT22;15392;48.912;8.380;2023-11-19T16:17:56;18.90;57.00
28087;DHT22;15392;48.912;8.380;2023-11-19T16:20:43;18.90;57.10
28087;DHT22;15392;48.912;8.380;2023-11-19T16:23:30;18.90;56.90
28087;DHT22;15392;48.912;8.380;2023-11-19T16:26:16;18.80;56.60
28087;DHT22;15392;48.912;8.380;2023-11-19T16:29:05;18.80;57.30
28087;DHT22;15392;48.912;8.380;2023-11-19T16:31:51;18.80;56.50
28087;DHT22;15392;48.912;8.380;2023-11-19T16:34:38;18.80;57.30
28087;DHT22;15392;48.912;8.380;2023-11-19T16:37:27;18.80;56.60
28087;DHT22;15392;48.912;8.380;2023-11-19T16:40:14;18.80;56.90
28087;DHT22;15392;48.912;8.380;2023-11-19T16:43:00;18.80;57.20
28087;DHT22;15392;48.912;8.380;2023-11-19T16:45:46;18.70;56.80
28087;DHT22;15392;48.912;8.380;2023-11-19T16:48:32;18.80;56.80
28087;DHT22;15392;48.912;8.380;2023-11-19T16:51:18;18.70;57.10
28087;DHT22;15392;48.912;8.380;2023-11-19T16:54:04;18.70;57.10
28087;DHT22;15392;48.912;8.380;2023-11-19T16:56:50;18.70;56.90
28087;DHT22;15392;48.912;8.380;2023-11-19T16:59:37;18.70;56.90
28087;DHT22;15392;48.912;8.380;2023-11-19T17:02:24;18.70;57.30
28087;DHT22;15392;48.912;8.380;2023-11-19T17:05:13;18.70;57.00
28087;DHT22;15392;48.912;8.380;2023-11-19T17:08:00;18.70;56.00
28087;DHT22;15392;48.912;8.380;2023-11-19T17:10:46;18.70;57.10
28087;DHT22;15392;48.912;8.380;2023-11-19T17:13:35;18.70;57.30
28087;DHT22;15392;48.912;8.380;2023-11-19T17:16:21;18.70;57.10
28087;DHT22;15392;48.912;8.380;2023-11-19T17:19:07;18.60;56.60
28087;DHT22;15392;48.912;8.380;2023-11-19T17:21:53;18.60;56.30
28087;DHT22;15392;48.912;8.380;2023-11-19T17:24:39;18.60;56.60
28087;DHT22;15392;48.912;8.380;2023-11-19T17:27:25;18.60;56.30
28087;DHT22;15392;48.912;8.380;2023-11-19T17:30:13;18.60;56.60
28087;DHT22;15392;48.912;8.380;2023-11-19T17:33:04;18.60;56.10
28087;DHT22;15392;48.912;8.380;2023-11-19T17:35:54;18.60;56.30
28087;DHT22;15392;48.912;8.380;2023-11-19T17:38:41;18.60;56.20
28087;DHT22;15392;48.912;8.380;2023-11-19T17:41:27;18.60;56.80
28087;DHT22;15392;48.912;8.380;2023-11-19T17:44:13;18.60;56.80
28087;DHT22;15392;48.912;8.380;2023-11-19T17:46:59;18.60;56.80
28087;DHT22;15392;48.912;8.380;2023-11-19T17:49:45;18.60;57.30